Time,TemperatureF,DewpointF,PressureIn,WindDirection,WindDirectionDegrees,WindSpeedMPH,WindSpeedGustMPH,Humidity,HourlyPrecipIn,Conditions,Clouds,dailyrainin,SoftwareType,DateUTC
2013-02-02 00:12:00,51.8,38.4,29.90,SW,225,0.0,-999.0,60,-99.99,,,0.00,Acu-Link.com,2013-02-02 06:12:00,
2013-02-02 00:27:00,52.3,38.4,29.90,SW,225,0.0,-999.0,59,-99.99,,,0.00,Acu-Link.com,2013-02-02 06:27:00,
2013-02-02 00:42:00,52.3,38.0,29.89,SW,225,0.0,-999.0,58,-99.99,,,0.00,Acu-Link.com,2013-02-02 06:42:00,
2013-02-02 00:58:00,52.3,37.5,29.89,SW,225,2.2,-999.0,57,-99.99,,,0.00,Acu-Link.com,2013-02-02 06:58:00,
2013-02-02 01:13:00,52.5,37.3,29.89,SW,225,0.0,-999.0,56,-99.99,,,0.00,Acu-Link.com,2013-02-02 07:13:00,
2013-02-02 01:28:00,52.5,37.3,29.89,SW,225,0.0,-999.0,56,-99.99,,,0.00,Acu-Link.com,2013-02-02 07:28:00,
2013-02-02 01:44:00,52.5,37.3,29.89,SW,225,1.1,-999.0,56,-99.99,,,0.00,Acu-Link.com,2013-02-02 07:44:00,
2013-02-02 01:59:00,52.5,37.3,29.89,SW,225,0.0,-999.0,56,-99.99,,,0.00,Acu-Link.com,2013-02-02 07:59:00,
2013-02-02 02:14:00,52.5,38.2,29.89,SW,225,0.0,-999.0,58,-99.99,,,0.00,Acu-Link.com,2013-02-02 08:14:00,
2013-02-02 02:30:00,52.7,38.3,29.88,SW,225,0.0,-999.0,58,-99.99,,,0.00,Acu-Link.com,2013-02-02 08:30:00,
2013-02-02 02:45:00,52.9,39.4,29.88,SW,225,0.0,-999.0,60,-99.99,,,0.00,Acu-Link.com,2013-02-02 08:45:00,
2013-02-02 03:00:00,53.1,40.0,29.88,SW,225,0.0,-999.0,61,-99.99,,,0.00,Acu-Link.com,2013-02-02 09:00:00,
2013-02-02 03:16:00,53.1,40.0,29.88,SW,225,1.1,-999.0,61,-99.99,,,0.00,Acu-Link.com,2013-02-02 09:16:00,
2013-02-02 03:32:00,53.2,40.1,29.88,SW,225,0.0,-999.0,61,-99.99,,,0.00,Acu-Link.com,2013-02-02 09:32:00,
2013-02-02 03:47:00,53.2,40.5,29.88,SW,225,0.0,-999.0,62,-99.99,,,0.00,Acu-Link.com,2013-02-02 09:47:00,
2013-02-02 04:02:00,53.1,40.8,29.88,SW,225,0.0,-999.0,63,-99.99,,,0.00,Acu-Link.com,2013-02-02 10:02:00,
2013-02-02 04:17:00,52.7,40.9,29.88,SW,225,0.0,-999.0,64,-99.99,,,0.00,Acu-Link.com,2013-02-02 10:17:00,
2013-02-02 04:32:00,52.2,40.4,29.88,SW,225,0.0,-999.0,64,-99.99,,,0.00,Acu-Link.com,2013-02-02 10:32:00,
2013-02-02 04:47:00,51.4,39.6,29.88,SW,225,0.0,-999.0,64,-99.99,,,0.00,Acu-Link.com,2013-02-02 10:47:00,
2013-02-02 05:03:00,50.9,39.6,29.88,SW,225,0.0,-999.0,65,-99.99,,,0.00,Acu-Link.com,2013-02-02 11:03:00,
2013-02-02 05:18:00,50.4,39.5,29.89,SW,225,0.0,-999.0,66,-99.99,,,0.00,Acu-Link.com,2013-02-02 11:18:00,
2013-02-02 05:33:00,49.8,39.7,29.89,SW,225,0.0,-999.0,68,-99.99,,,0.00,Acu-Link.com,2013-02-02 11:33:00,
2013-02-02 05:49:00,49.5,39.8,29.89,SW,225,0.0,-999.0,69,-99.99,,,0.00,Acu-Link.com,2013-02-02 11:49:00,
2013-02-02 06:04:00,49.3,39.9,29.89,SW,225,0.0,-999.0,70,-99.99,,,0.00,Acu-Link.com,2013-02-02 12:04:00,
2013-02-02 06:19:00,48.9,39.9,29.90,SW,225,0.0,-999.0,71,-99.99,,,0.00,Acu-Link.com,2013-02-02 12:19:00,
2013-02-02 06:35:00,48.7,40.1,29.91,SW,225,0.0,-999.0,72,-99.99,,,0.00,Acu-Link.com,2013-02-02 12:35:00,
2013-02-02 06:50:00,48.2,40.0,29.92,SW,225,0.0,-999.0,73,-99.99,,,0.00,Acu-Link.com,2013-02-02 12:50:00,
2013-02-02 07:05:00,47.5,40.3,29.93,SW,225,0.0,-999.0,76,-99.99,,,0.00,Acu-Link.com,2013-02-02 13:05:00,
2013-02-02 07:21:00,46.8,39.6,29.94,SW,225,0.0,-999.0,76,-99.99,,,0.00,Acu-Link.com,2013-02-02 13:21:00,
2013-02-02 07:36:00,46.6,39.4,29.95,SW,225,0.0,-999.0,76,-99.99,,,0.00,Acu-Link.com,2013-02-02 13:36:00,
2013-02-02 07:51:00,46.4,39.3,29.95,SW,225,0.0,-999.0,76,-99.99,,,0.00,Acu-Link.com,2013-02-02 13:51:00,
2013-02-02 08:07:00,46.4,40.6,29.95,SW,225,0.0,-999.0,80,-99.99,,,0.00,Acu-Link.com,2013-02-02 14:07:00,
2013-02-02 08:22:00,47.3,41.4,29.96,SW,225,0.0,-999.0,80,-99.99,,,0.00,Acu-Link.com,2013-02-02 14:22:00,
2013-02-02 08:37:00,48.2,42.0,29.96,SW,225,0.0,-999.0,79,-99.99,,,0.00,Acu-Link.com,2013-02-02 14:37:00,
2013-02-02 08:52:00,49.5,42.6,29.97,SW,225,0.0,-999.0,77,-99.99,,,0.00,Acu-Link.com,2013-02-02 14:52:00,
2013-02-02 09:08:00,50.7,43.4,29.97,SW,225,0.0,-999.0,76,-99.99,,,0.00,Acu-Link.com,2013-02-02 15:08:00,
2013-02-02 09:23:00,51.6,43.6,29.97,SW,225,0.0,-999.0,74,-99.99,,,0.00,Acu-Link.com,2013-02-02 15:23:00,
2013-02-02 09:38:00,52.9,44.1,29.99,SW,225,0.0,-999.0,72,-99.99,,,0.00,Acu-Link.com,2013-02-02 15:38:00,
2013-02-02 09:54:00,54.5,44.2,29.99,SW,225,0.0,-999.0,68,-99.99,,,0.00,Acu-Link.com,2013-02-02 15:54:00,
2013-02-02 10:09:00,55.8,44.2,30.00,SW,225,0.0,-999.0,65,-99.99,,,0.00,Acu-Link.com,2013-02-02 16:09:00,
2013-02-02 10:24:00,57.2,43.4,30.00,SW,225,0.0,-999.0,60,-99.99,,,0.00,Acu-Link.com,2013-02-02 16:24:00,
2013-02-02 10:40:00,58.3,43.6,30.00,SW,225,1.1,-999.0,58,-99.99,,,0.00,Acu-Link.com,2013-02-02 16:40:00,
2013-02-02 10:55:00,59.0,44.2,30.00,SW,225,0.0,-999.0,58,-99.99,,,0.00,Acu-Link.com,2013-02-02 16:55:00,
2013-02-02 11:10:00,59.7,43.5,30.00,SW,225,1.7,-999.0,55,-99.99,,,0.00,Acu-Link.com,2013-02-02 17:10:00,
2013-02-02 11:26:00,60.1,43.4,30.00,SW,225,0.0,-999.0,54,-99.99,,,0.00,Acu-Link.com,2013-02-02 17:26:00,
2013-02-02 11:41:00,60.6,42.9,30.00,SW,225,0.0,-999.0,52,-99.99,,,0.00,Acu-Link.com,2013-02-02 17:41:00,
2013-02-02 11:56:00,61.7,42.9,29.99,SW,225,0.0,-999.0,50,-99.99,,,0.00,Acu-Link.com,2013-02-02 17:56:00,
2013-02-02 12:12:00,62.1,41.6,29.99,SW,225,2.2,-999.0,47,-99.99,,,0.00,Acu-Link.com,2013-02-02 18:12:00,
2013-02-02 12:27:00,62.8,41.1,29.98,SW,225,1.1,-999.0,45,-99.99,,,0.00,Acu-Link.com,2013-02-02 18:27:00,
2013-02-02 12:42:00,63.5,40.6,29.98,SW,225,0.0,-999.0,43,-99.99,,,0.00,Acu-Link.com,2013-02-02 18:42:00,
2013-02-02 12:57:00,64.2,40.0,29.98,SW,225,0.0,-999.0,41,-99.99,,,0.00,Acu-Link.com,2013-02-02 18:57:00,
2013-02-02 13:13:00,64.6,40.4,29.97,SW,225,0.0,-999.0,41,-99.99,,,0.00,Acu-Link.com,2013-02-02 19:13:00,
2013-02-02 13:28:00,65.5,40.5,29.97,SW,225,2.2,-999.0,40,-99.99,,,0.00,Acu-Link.com,2013-02-02 19:28:00,
2013-02-02 13:43:00,66.0,39.7,29.96,SW,225,0.0,-999.0,38,-99.99,,,0.00,Acu-Link.com,2013-02-02 19:43:00,
2013-02-02 13:59:00,66.6,39.5,29.96,SW,225,0.0,-999.0,37,-99.99,,,0.00,Acu-Link.com,2013-02-02 19:59:00,
2013-02-02 14:14:00,67.3,40.1,29.96,SW,225,0.0,-999.0,37,-99.99,,,0.00,Acu-Link.com,2013-02-02 20:14:00,
2013-02-02 14:29:00,67.8,38.4,29.96,SW,225,2.2,-999.0,34,-99.99,,,0.00,Acu-Link.com,2013-02-02 20:29:00,
2013-02-02 14:45:00,70.5,36.7,29.96,SW,225,0.0,-999.0,29,-99.99,,,0.00,Acu-Link.com,2013-02-02 20:45:00,
2013-02-02 15:00:00,72.1,38.1,29.96,SW,225,0.0,-999.0,29,-99.99,,,0.00,Acu-Link.com,2013-02-02 21:00:00,
2013-02-02 15:15:00,70.5,36.7,29.96,SW,225,0.0,-999.0,29,-99.99,,,0.00,Acu-Link.com,2013-02-02 21:15:00,
2013-02-02 15:31:00,71.8,37.8,29.96,SW,225,0.0,-999.0,29,-99.99,,,0.00,Acu-Link.com,2013-02-02 21:31:00,
2013-02-02 15:46:00,73.2,37.2,29.96,SW,225,0.0,-999.0,27,-99.99,,,0.00,Acu-Link.com,2013-02-02 21:46:00,
2013-02-02 16:01:00,73.6,37.5,29.96,SW,225,0.0,-999.0,27,-99.99,,,0.00,Acu-Link.com,2013-02-02 22:01:00,
2013-02-02 16:17:00,72.3,37.4,29.95,SW,225,0.0,-999.0,28,-99.99,,,0.00,Acu-Link.com,2013-02-02 22:17:00,
2013-02-02 16:32:00,73.0,37.0,29.94,SW,225,0.0,-999.0,27,-99.99,,,0.00,Acu-Link.com,2013-02-02 22:32:00,
2013-02-02 16:47:00,72.3,36.4,29.95,SW,225,0.0,-999.0,27,-99.99,,,0.00,Acu-Link.com,2013-02-02 22:47:00,
2013-02-02 17:02:00,69.6,34.1,29.96,SW,225,0.0,-999.0,27,-99.99,,,0.00,Acu-Link.com,2013-02-02 23:02:00,
2013-02-02 17:18:00,68.0,34.6,29.96,SW,225,0.0,-999.0,29,-99.99,,,0.00,Acu-Link.com,2013-02-02 23:18:00,
2013-02-02 17:33:00,66.7,35.9,29.96,SW,225,0.0,-999.0,32,-99.99,,,0.00,Acu-Link.com,2013-02-02 23:33:00,
2013-02-02 17:48:00,65.7,35.8,29.97,SW,225,0.0,-999.0,33,-99.99,,,0.00,Acu-Link.com,2013-02-02 23:48:00,
2013-02-02 18:04:00,64.2,36.0,29.97,SW,225,0.0,-999.0,35,-99.99,,,0.00,Acu-Link.com,2013-02-03 00:04:00,
2013-02-02 18:19:00,62.6,34.6,29.97,SW,225,0.0,-999.0,35,-99.99,,,0.00,Acu-Link.com,2013-02-03 00:19:00,
2013-02-02 18:34:00,61.2,35.4,29.98,SW,225,0.0,-999.0,38,-99.99,,,0.00,Acu-Link.com,2013-02-03 00:34:00,
2013-02-02 18:50:00,59.7,36.0,29.98,SW,225,0.0,-999.0,41,-99.99,,,0.00,Acu-Link.com,2013-02-03 00:50:00,
2013-02-02 19:05:00,57.9,35.0,29.99,SW,225,0.0,-999.0,42,-99.99,,,0.00,Acu-Link.com,2013-02-03 01:05:00,
2013-02-02 19:20:00,57.0,35.3,30.00,SW,225,0.0,-999.0,44,-99.99,,,0.00,Acu-Link.com,2013-02-03 01:20:00,
2013-02-02 19:36:00,55.8,36.4,30.00,SW,225,0.0,-999.0,48,-99.99,,,0.00,Acu-Link.com,2013-02-03 01:36:00,
2013-02-02 19:51:00,54.5,35.2,30.00,SW,225,0.0,-999.0,48,-99.99,,,0.00,Acu-Link.com,2013-02-03 01:51:00,
2013-02-02 20:06:00,53.4,35.7,30.01,SW,225,0.0,-999.0,51,-99.99,,,0.00,Acu-Link.com,2013-02-03 02:06:00,
2013-02-02 20:22:00,52.7,36.5,30.02,SW,225,0.0,-999.0,54,-99.99,,,0.00,Acu-Link.com,2013-02-03 02:22:00,
2013-02-02 20:37:00,52.3,35.7,30.02,SW,225,0.0,-999.0,53,-99.99,,,0.00,Acu-Link.com,2013-02-03 02:37:00,
2013-02-02 20:52:00,51.8,35.7,30.03,SW,225,0.0,-999.0,54,-99.99,,,0.00,Acu-Link.com,2013-02-03 02:52:00,
2013-02-02 21:07:00,50.9,35.8,30.03,SW,225,0.0,-999.0,56,-99.99,,,0.00,Acu-Link.com,2013-02-03 03:07:00,
2013-02-02 21:23:00,50.2,36.0,30.04,SW,225,0.0,-999.0,58,-99.99,,,0.00,Acu-Link.com,2013-02-03 03:23:00,
2013-02-02 21:38:00,49.6,35.9,30.04,SW,225,0.0,-999.0,59,-99.99,,,0.00,Acu-Link.com,2013-02-03 03:38:00,
2013-02-02 21:53:00,49.1,35.8,30.04,SW,225,0.0,-999.0,60,-99.99,,,0.00,Acu-Link.com,2013-02-03 03:53:00,
2013-02-02 22:09:00,48.6,35.8,30.05,SW,225,0.0,-999.0,61,-99.99,,,0.00,Acu-Link.com,2013-02-03 04:09:00,
2013-02-02 22:24:00,48.4,35.2,30.05,SW,225,0.0,-999.0,60,-99.99,,,0.00,Acu-Link.com,2013-02-03 04:24:00,
2013-02-02 22:39:00,47.7,35.3,30.05,SW,225,0.0,-999.0,62,-99.99,,,0.00,Acu-Link.com,2013-02-03 04:39:00,
2013-02-02 22:55:00,46.8,35.7,30.06,SW,225,0.0,-999.0,65,-99.99,,,0.00,Acu-Link.com,2013-02-03 04:55:00,
2013-02-02 23:10:00,46.4,35.3,30.06,SW,225,0.0,-999.0,65,-99.99,,,0.00,Acu-Link.com,2013-02-03 05:10:00,
2013-02-02 23:25:00,46.2,35.1,30.07,SW,225,0.0,-999.0,65,-99.99,,,0.00,Acu-Link.com,2013-02-03 05:25:00,
2013-02-02 23:41:00,46.0,34.5,30.06,SW,225,0.0,-999.0,64,-99.99,,,0.00,Acu-Link.com,2013-02-03 05:41:00,
2013-02-02 23:56:00,45.7,35.4,30.06,SW,225,0.0,-999.0,67,-99.99,,,0.00,Acu-Link.com,2013-02-03 05:56:00,